createdAt,value
2018-12-14T00:00:15.274Z,0.00
2018-12-14T00:01:15.261Z,0.00
2018-12-14T00:02:15.268Z,0.00
2018-12-14T00:03:15.241Z,0.00
2018-12-14T00:04:15.234Z,0.00
2018-12-14T00:05:15.224Z,0.00
2018-12-14T00:06:15.211Z,0.00
2018-12-14T00:07:15.221Z,0.00
2018-12-14T00:08:15.191Z,0.00
2018-12-14T00:09:15.180Z,0.00
2018-12-14T00:10:15.166Z,0.00
2018-12-14T00:11:15.157Z,0.00
2018-12-14T00:12:15.163Z,0.00
2018-12-14T00:13:15.129Z,0.00
2018-12-14T00:14:15.122Z,0.00
2018-12-14T00:15:15.113Z,0.00
2018-12-14T00:16:15.097Z,0.00
2018-12-14T00:17:15.109Z,0.00
2018-12-14T00:18:15.074Z,0.00
2018-12-14T00:19:15.064Z,0.00
2018-12-14T00:20:15.054Z,0.00
2018-12-14T00:21:15.041Z,0.00
2018-12-14T00:22:15.078Z,0.00
2018-12-14T00:23:15.020Z,0.00
2018-12-14T00:24:15.009Z,0.00
2018-12-14T00:25:14.999Z,0.00
2018-12-14T00:26:14.994Z,0.00
2018-12-14T00:27:14.992Z,0.00
2018-12-14T00:28:14.973Z,0.00
2018-12-14T00:29:14.957Z,0.00
2018-12-14T00:30:14.950Z,0.00
2018-12-14T00:31:14.933Z,0.00
2018-12-14T00:32:14.939Z,0.00
2018-12-14T00:33:14.916Z,0.00
2018-12-14T00:34:14.904Z,0.00
2018-12-14T00:35:14.888Z,0.00
2018-12-14T00:36:14.877Z,0.00
2018-12-14T00:37:14.882Z,0.00
2018-12-14T00:38:14.857Z,0.00
2018-12-14T00:39:14.843Z,0.00
2018-12-14T00:40:14.840Z,0.00
2018-12-14T00:41:14.821Z,0.00
2018-12-14T00:42:14.834Z,0.00
2018-12-14T00:43:14.801Z,0.00
2018-12-14T00:44:14.796Z,0.00
2018-12-14T00:45:14.779Z,0.00
2018-12-14T00:46:14.774Z,0.00
2018-12-14T00:47:14.771Z,0.00
2018-12-14T00:48:14.752Z,0.00
2018-12-14T00:49:14.736Z,0.00
2018-12-14T00:50:14.726Z,0.00
2018-12-14T00:51:14.711Z,0.00
2018-12-14T00:52:14.727Z,0.00
2018-12-14T00:53:14.691Z,0.00
2018-12-14T00:54:14.679Z,0.00
2018-12-14T00:55:14.675Z,0.00
2018-12-14T00:56:14.657Z,0.00
2018-12-14T00:57:14.663Z,0.00
2018-12-14T00:58:14.645Z,0.00
2018-12-14T00:59:14.631Z,0.00
2018-12-14T01:00:14.614Z,0.00
2018-12-14T01:01:14.604Z,0.00
2018-12-14T01:02:14.608Z,0.00
2018-12-14T01:03:14.585Z,0.00
2018-12-14T01:04:14.577Z,0.00
2018-12-14T01:05:14.566Z,0.00
2018-12-14T01:06:14.551Z,0.00
2018-12-14T01:07:14.556Z,0.00
2018-12-14T01:08:14.529Z,0.00
2018-12-14T01:09:14.514Z,0.00
2018-12-14T01:10:14.509Z,0.00
2018-12-14T01:11:14.492Z,0.00
2018-12-14T01:12:14.496Z,0.00
2018-12-14T01:13:14.477Z,0.00
2018-12-14T01:14:14.461Z,0.00
2018-12-14T01:15:14.450Z,0.00
2018-12-14T01:16:14.453Z,0.00
2018-12-14T01:17:14.442Z,0.00
2018-12-14T01:18:14.414Z,0.00
2018-12-14T01:19:14.404Z,0.00
2018-12-14T01:20:14.392Z,0.00
2018-12-14T01:21:14.389Z,0.00
2018-12-14T01:22:14.396Z,0.00
2018-12-14T01:23:14.362Z,0.00
2018-12-14T01:24:14.350Z,0.00
2018-12-14T01:25:14.341Z,0.00
2018-12-14T01:26:14.338Z,0.00
2018-12-14T01:27:14.332Z,0.00
2018-12-14T01:28:14.313Z,0.00
2018-12-14T01:29:14.296Z,0.00
2018-12-14T01:30:14.289Z,0.00
2018-12-14T01:31:14.280Z,0.00
2018-12-14T01:32:14.298Z,0.00
2018-12-14T01:33:14.250Z,0.00
2018-12-14T01:34:14.257Z,0.00
2018-12-14T01:35:14.235Z,0.00
2018-12-14T01:36:14.217Z,0.00
2018-12-14T01:37:14.206Z,0.00
2018-12-14T01:38:14.211Z,0.00
2018-12-14T01:39:14.186Z,0.00
2018-12-14T01:40:14.179Z,0.00
2018-12-14T01:41:14.162Z,0.00
2018-12-14T01:42:14.152Z,0.00
2018-12-14T01:43:14.155Z,0.00
2018-12-14T01:44:14.130Z,0.00
2018-12-14T01:45:14.119Z,0.00
2018-12-14T01:46:14.114Z,0.00
2018-12-14T01:47:14.096Z,0.00
2018-12-14T01:48:14.102Z,0.00
2018-12-14T01:49:14.075Z,0.00
2018-12-14T01:50:14.070Z,0.00
2018-12-14T01:51:14.053Z,0.00
2018-12-14T01:52:14.049Z,0.00
2018-12-14T01:53:14.046Z,0.00
2018-12-14T01:54:14.021Z,0.00
2018-12-14T01:55:14.013Z,0.00
2018-12-14T01:56:13.997Z,0.00
2018-12-14T01:57:13.987Z,0.00
2018-12-14T01:58:14.001Z,0.00
2018-12-14T01:59:13.965Z,0.00
2018-12-14T02:00:13.955Z,0.00
2018-12-14T02:01:13.950Z,0.00
2018-12-14T02:02:13.932Z,0.00
2018-12-14T02:03:13.936Z,0.00
2018-12-14T02:04:13.919Z,0.00
2018-12-14T02:05:13.910Z,0.00
2018-12-14T02:06:13.887Z,0.00
2018-12-14T02:07:13.884Z,0.00
2018-12-14T02:08:13.892Z,0.00
2018-12-14T02:09:13.864Z,0.00
2018-12-14T02:10:13.849Z,0.00
2018-12-14T02:11:13.834Z,0.00
2018-12-14T02:12:13.826Z,0.00
2018-12-14T02:13:13.831Z,0.00
2018-12-14T02:14:13.801Z,0.00
2018-12-14T02:15:13.788Z,0.00
2018-12-14T02:16:13.784Z,0.00
2018-12-14T02:17:13.766Z,0.00
2018-12-14T02:18:13.776Z,0.00
2018-12-14T02:19:13.745Z,0.00
2018-12-14T02:20:13.734Z,0.00
2018-12-14T02:21:13.725Z,0.00
2018-12-14T02:22:13.730Z,0.00
2018-12-14T02:23:13.722Z,0.00
2018-12-14T02:24:13.691Z,0.00
2018-12-14T02:25:13.682Z,0.00
2018-12-14T02:26:13.669Z,0.00
2018-12-14T02:27:13.656Z,0.00
2018-12-14T02:28:13.678Z,0.00
2018-12-14T02:29:13.644Z,0.00
2018-12-14T02:30:13.634Z,0.00
2018-12-14T02:31:13.612Z,0.00
2018-12-14T02:32:13.603Z,0.00
2018-12-14T02:33:13.609Z,0.00
2018-12-14T02:34:13.588Z,0.00
2018-12-14T02:35:13.577Z,0.00
2018-12-14T02:36:13.569Z,0.00
2018-12-14T02:37:13.547Z,0.00
2018-12-14T02:38:13.558Z,0.00
2018-12-14T02:39:13.529Z,0.00
2018-12-14T02:40:13.523Z,0.00
2018-12-14T02:41:13.503Z,0.00
2018-12-14T02:42:19.293Z,0.00
2018-12-14T02:43:14.524Z,0.00
2018-12-14T02:44:13.470Z,0.00
2018-12-14T02:45:13.459Z,0.00
2018-12-14T02:46:13.455Z,0.00
2018-12-14T02:47:13.438Z,0.00
2018-12-14T02:48:13.444Z,0.00
2018-12-14T02:49:13.415Z,0.00
2018-12-14T02:50:13.412Z,0.00
2018-12-14T02:51:13.394Z,0.00
2018-12-14T02:52:13.397Z,0.00
2018-12-14T02:53:13.386Z,0.00
2018-12-14T02:54:13.370Z,0.00
2018-12-14T02:55:13.356Z,0.00
2018-12-14T02:56:13.347Z,0.00
2018-12-14T02:57:13.334Z,0.00
2018-12-14T02:58:13.348Z,0.00
2018-12-14T02:59:13.312Z,0.00
2018-12-14T03:00:13.295Z,0.00
2018-12-14T03:01:13.283Z,0.00
2018-12-14T03:02:13.275Z,0.00
2018-12-14T03:03:13.283Z,0.00
2018-12-14T03:04:13.257Z,0.00
2018-12-14T03:05:13.254Z,0.00
2018-12-14T03:06:13.242Z,0.00
2018-12-14T03:07:13.225Z,0.00
2018-12-14T03:08:13.220Z,0.00
2018-12-14T03:09:13.195Z,0.00
2018-12-14T03:10:13.192Z,0.00
2018-12-14T03:11:13.174Z,0.00
2018-12-14T03:12:13.169Z,0.00
2018-12-14T03:13:13.171Z,0.00
2018-12-14T03:14:13.143Z,0.00
2018-12-14T03:15:13.129Z,0.00
2018-12-14T03:16:13.146Z,0.00
2018-12-14T03:17:13.107Z,0.00
2018-12-14T03:18:13.116Z,0.00
2018-12-14T03:19:13.093Z,0.00
2018-12-14T03:20:13.074Z,0.00
2018-12-14T03:21:13.071Z,0.00
2018-12-14T03:22:13.066Z,0.00
2018-12-14T03:23:13.058Z,0.00
2018-12-14T03:24:13.037Z,0.00
2018-12-14T03:25:13.020Z,0.00
2018-12-14T03:26:13.016Z,0.00
2018-12-14T03:27:12.999Z,0.00
2018-12-14T03:28:13.016Z,0.00
2018-12-14T03:29:12.976Z,0.00
2018-12-14T03:30:12.966Z,0.00
2018-12-14T03:31:12.956Z,0.00
2018-12-14T03:32:12.946Z,0.00
2018-12-14T03:33:12.950Z,0.00
2018-12-14T03:34:12.928Z,0.00
2018-12-14T03:35:12.917Z,0.00
2018-12-14T03:36:12.899Z,0.00
2018-12-14T03:37:12.889Z,0.00
2018-12-14T03:38:12.893Z,0.00
2018-12-14T03:39:12.866Z,0.00
2018-12-14T03:40:12.863Z,0.00
2018-12-14T03:41:12.853Z,0.00
2018-12-14T03:42:12.840Z,0.00
2018-12-14T03:43:12.844Z,0.00
2018-12-14T03:44:12.819Z,0.00
2018-12-14T03:45:12.805Z,0.00
2018-12-14T03:46:12.798Z,0.00
2018-12-14T03:47:12.784Z,0.00
2018-12-14T03:48:12.787Z,0.00
2018-12-14T03:49:12.757Z,0.00
2018-12-14T03:50:12.748Z,0.00
2018-12-14T03:51:12.735Z,0.00
2018-12-14T03:52:12.732Z,0.00
2018-12-14T03:53:12.715Z,0.00
2018-12-14T03:54:12.721Z,0.00
2018-12-14T03:55:12.700Z,0.00
2018-12-14T03:56:12.680Z,0.00
2018-12-14T03:57:12.684Z,0.00
2018-12-14T03:58:12.666Z,0.00
2018-12-14T03:59:12.664Z,0.00
2018-12-14T04:00:12.638Z,0.00
2018-12-14T04:01:12.626Z,0.00
2018-12-14T04:02:12.624Z,0.00
2018-12-14T04:03:12.606Z,0.00
2018-12-14T04:04:12.637Z,0.00
2018-12-14T04:05:12.593Z,0.00
2018-12-14T04:06:12.573Z,0.00
2018-12-14T04:07:12.561Z,0.00
2018-12-14T04:08:12.549Z,0.00
2018-12-14T04:09:12.563Z,0.00
2018-12-14T04:10:12.546Z,0.00
2018-12-14T04:11:12.516Z,0.00
2018-12-14T04:12:12.515Z,0.00
2018-12-14T04:13:12.493Z,0.00
2018-12-14T04:14:12.502Z,0.00
2018-12-14T04:15:12.477Z,0.00
2018-12-14T04:16:12.474Z,0.00
2018-12-14T04:17:12.451Z,0.00
2018-12-14T04:18:12.440Z,0.00
2018-12-14T04:19:12.443Z,0.00
2018-12-14T04:20:12.418Z,0.00
2018-12-14T04:21:12.409Z,0.00
2018-12-14T04:22:12.414Z,0.00
2018-12-14T04:23:12.384Z,0.00
2018-12-14T04:24:12.387Z,0.00
2018-12-14T04:25:12.395Z,0.00
2018-12-14T04:26:12.385Z,0.00
2018-12-14T04:27:12.346Z,0.00
2018-12-14T04:28:12.341Z,0.00
2018-12-14T04:29:12.342Z,0.00
2018-12-14T04:30:12.307Z,0.00
2018-12-14T04:31:12.296Z,0.00
2018-12-14T04:32:12.290Z,0.00
2018-12-14T04:33:12.275Z,0.00
2018-12-14T04:34:12.302Z,0.00
2018-12-14T04:35:12.261Z,0.00
2018-12-14T04:36:12.240Z,0.00
2018-12-14T04:37:12.229Z,0.00
2018-12-14T04:38:12.219Z,0.00
2018-12-14T04:39:12.229Z,0.00
2018-12-14T04:40:12.213Z,0.00
2018-12-14T04:41:12.186Z,0.00
2018-12-14T04:42:12.181Z,0.00
2018-12-14T04:43:12.164Z,0.00
2018-12-14T04:44:12.172Z,0.00
2018-12-14T04:45:12.143Z,0.00
2018-12-14T04:46:12.150Z,0.00
2018-12-14T04:47:12.128Z,0.00
2018-12-14T04:48:12.108Z,0.00
2018-12-14T04:49:12.114Z,0.00
2018-12-14T04:50:12.089Z,0.00
2018-12-14T04:51:12.080Z,0.00
2018-12-14T04:52:12.076Z,0.00
2018-12-14T04:53:12.056Z,0.00
2018-12-14T04:54:12.060Z,0.00
2018-12-14T04:55:12.039Z,0.00
2018-12-14T04:56:13.475Z,0.00
2018-12-14T04:57:12.012Z,0.00
2018-12-14T04:58:12.015Z,0.00
2018-12-14T04:59:12.006Z,0.00
2018-12-14T05:00:11.977Z,0.00
2018-12-14T05:01:11.972Z,0.00
2018-12-14T05:02:11.956Z,0.00
2018-12-14T05:03:11.948Z,0.00
2018-12-14T05:04:11.968Z,0.00
2018-12-14T05:05:11.932Z,0.00
2018-12-14T05:06:11.918Z,0.00
2018-12-14T05:07:11.906Z,0.00
2018-12-14T05:08:11.898Z,0.00
2018-12-14T05:09:11.904Z,0.00
2018-12-14T05:10:11.883Z,0.00
2018-12-14T05:11:11.859Z,0.00
2018-12-14T05:12:11.848Z,0.00
2018-12-14T05:13:11.835Z,0.00
2018-12-14T05:14:11.840Z,0.00
2018-12-14T05:15:11.822Z,0.00
2018-12-14T05:16:11.810Z,0.00
2018-12-14T05:17:11.793Z,0.00
2018-12-14T05:18:11.779Z,0.00
2018-12-14T05:19:11.786Z,0.00
2018-12-14T05:20:11.758Z,0.00
2018-12-14T05:21:11.754Z,0.00
2018-12-14T05:22:11.743Z,0.00
2018-12-14T05:23:11.725Z,0.00
2018-12-14T05:24:11.728Z,0.00
2018-12-14T05:25:11.703Z,0.00
2018-12-14T05:26:11.694Z,0.00
2018-12-14T05:27:11.681Z,0.00
2018-12-14T05:28:11.685Z,0.00
2018-12-14T05:29:11.674Z,0.00
2018-12-14T05:30:11.650Z,0.00
2018-12-14T05:31:11.637Z,0.00
2018-12-14T05:32:11.628Z,0.00
2018-12-14T05:33:11.616Z,0.00
2018-12-14T05:34:11.646Z,0.00
2018-12-14T05:35:11.598Z,0.00
2018-12-14T05:36:11.583Z,0.00
2018-12-14T05:37:11.574Z,0.00
2018-12-14T05:38:11.569Z,0.00
2018-12-14T05:39:11.566Z,0.00
2018-12-14T05:40:11.547Z,0.00
2018-12-14T05:41:11.528Z,0.00
2018-12-14T05:42:11.523Z,0.00
2018-12-14T05:43:11.511Z,0.00
2018-12-14T05:44:11.510Z,0.00
2018-12-14T05:45:11.490Z,0.00
2018-12-14T05:46:11.482Z,0.00
2018-12-14T05:47:11.462Z,0.00
2018-12-14T05:48:11.454Z,0.00
2018-12-14T05:49:11.458Z,0.00
2018-12-14T05:50:11.429Z,0.00
2018-12-14T05:51:11.424Z,0.00
2018-12-14T05:52:11.416Z,0.00
2018-12-14T05:53:11.396Z,0.00
2018-12-14T05:54:11.407Z,0.00
2018-12-14T05:55:11.381Z,0.00
2018-12-14T05:56:11.365Z,0.00
2018-12-14T05:57:11.351Z,0.00
2018-12-14T05:58:11.347Z,0.00
2018-12-14T05:59:11.344Z,0.00
2018-12-14T06:00:11.318Z,0.00
2018-12-14T06:01:11.307Z,0.00
2018-12-14T06:02:11.337Z,0.00
2018-12-14T06:03:11.287Z,0.00
2018-12-14T06:04:11.303Z,0.00
2018-12-14T06:05:11.265Z,0.00
2018-12-14T06:06:11.262Z,0.00
2018-12-14T06:07:11.244Z,0.00
2018-12-14T06:08:11.237Z,0.00
2018-12-14T06:09:11.233Z,0.00
2018-12-14T06:10:11.213Z,0.00
2018-12-14T06:11:11.204Z,0.00
2018-12-14T06:12:11.186Z,0.00
2018-12-14T06:13:11.187Z,0.00
2018-12-14T06:14:11.187Z,0.00
2018-12-14T06:15:11.153Z,0.00
2018-12-14T06:16:11.152Z,0.00
2018-12-14T06:17:11.134Z,0.00
2018-12-14T06:18:11.127Z,0.00
2018-12-14T06:19:11.133Z,0.00
2018-12-14T06:20:11.098Z,0.00
2018-12-14T06:21:11.094Z,0.00
2018-12-14T06:22:11.088Z,0.00
2018-12-14T06:23:11.073Z,0.00
2018-12-14T06:24:11.072Z,0.00
2018-12-14T06:25:11.048Z,0.00
2018-12-14T06:26:11.033Z,0.00
2018-12-14T06:27:11.022Z,0.00
2018-12-14T06:28:11.020Z,0.00
2018-12-14T06:29:11.017Z,0.00
2018-12-14T06:30:10.990Z,0.00
2018-12-14T06:31:10.977Z,0.00
2018-12-14T06:32:10.967Z,0.00
2018-12-14T06:33:10.955Z,0.00
2018-12-14T06:34:10.969Z,0.00
2018-12-14T06:35:10.940Z,0.00
2018-12-14T06:36:10.922Z,0.00
2018-12-14T06:37:10.911Z,0.00
2018-12-14T06:38:10.901Z,0.00
2018-12-14T06:39:10.903Z,0.00
2018-12-14T06:40:10.892Z,0.00
2018-12-14T06:41:10.869Z,0.00
2018-12-14T06:42:10.856Z,4.00
2018-12-14T06:43:15.504Z,4.00
2018-12-14T06:44:10.852Z,0.00
2018-12-14T06:45:10.824Z,4.00
2018-12-14T06:46:10.820Z,4.00
2018-12-14T06:47:10.808Z,4.00
2018-12-14T06:48:10.792Z,8.00
2018-12-14T06:49:10.801Z,4.00
2018-12-14T06:50:10.769Z,4.00
2018-12-14T06:51:10.758Z,8.00
2018-12-14T06:52:10.755Z,8.00
2018-12-14T06:53:10.736Z,8.00
2018-12-14T06:54:10.724Z,8.00
2018-12-14T06:55:10.728Z,12.00
2018-12-14T06:56:10.701Z,12.00
2018-12-14T06:57:10.692Z,12.00
2018-12-14T06:58:10.695Z,12.00
2018-12-14T06:59:10.669Z,16.00
2018-12-14T07:00:10.673Z,16.00
2018-12-14T07:01:10.648Z,16.00
2018-12-14T07:02:10.639Z,16.00
2018-12-14T07:03:10.625Z,16.00
2018-12-14T07:04:10.624Z,20.00
2018-12-14T07:05:10.618Z,20.00
2018-12-14T07:06:10.593Z,24.00
2018-12-14T07:07:10.584Z,20.00
2018-12-14T07:08:10.571Z,24.00
2018-12-14T07:09:10.561Z,24.00
2018-12-14T07:10:10.578Z,24.00
2018-12-14T07:11:10.538Z,32.00
2018-12-14T07:12:10.527Z,28.00
2018-12-14T07:13:10.519Z,32.00
2018-12-14T07:14:10.505Z,36.00
2018-12-14T07:15:10.508Z,32.00
2018-12-14T07:16:10.498Z,36.00
2018-12-14T07:17:10.476Z,40.00
2018-12-14T07:18:10.467Z,40.00
2018-12-14T07:19:10.450Z,44.00
2018-12-14T07:20:10.453Z,48.00
2018-12-14T07:21:10.427Z,48.00
2018-12-14T07:22:10.425Z,52.00
2018-12-14T07:23:10.405Z,52.00
2018-12-14T07:24:10.396Z,56.00
2018-12-14T07:25:10.403Z,60.00
2018-12-14T07:26:10.380Z,60.00
2018-12-14T07:27:10.363Z,64.00
2018-12-14T07:28:10.365Z,64.00
2018-12-14T07:29:10.339Z,68.00
2018-12-14T07:30:10.342Z,72.00
2018-12-14T07:31:10.318Z,72.00
2018-12-14T07:32:10.319Z,76.00
2018-12-14T07:33:10.295Z,80.00
2018-12-14T07:34:10.304Z,84.00
2018-12-14T07:35:10.289Z,88.00
2018-12-14T07:36:10.263Z,92.00
2018-12-14T07:37:10.253Z,100.00
2018-12-14T07:38:10.243Z,100.00
2018-12-14T07:39:10.234Z,104.00
2018-12-14T07:40:10.232Z,108.00
2018-12-14T07:41:10.224Z,116.00
2018-12-14T07:42:10.197Z,120.00
2018-12-14T07:43:10.190Z,124.00
2018-12-14T07:44:10.176Z,132.00
2018-12-14T07:45:10.176Z,140.00
2018-12-14T07:46:10.199Z,148.00
2018-12-14T07:47:11.727Z,148.00
2018-12-14T07:48:10.130Z,152.00
2018-12-14T07:49:10.123Z,152.00
2018-12-14T07:50:10.129Z,156.00
2018-12-14T07:51:10.099Z,156.00
2018-12-14T07:52:10.099Z,156.00
2018-12-14T07:53:10.085Z,164.00
2018-12-14T07:54:10.068Z,168.00
2018-12-14T07:55:10.073Z,168.00
2018-12-14T07:56:10.046Z,172.00
2018-12-14T07:57:10.042Z,176.00
2018-12-14T07:58:10.031Z,180.00
2018-12-14T07:59:10.017Z,184.00
2018-12-14T08:00:10.018Z,192.00
2018-12-14T08:01:09.993Z,196.00
2018-12-14T08:02:09.979Z,196.00
2018-12-14T08:03:09.967Z,196.00
2018-12-14T08:04:09.964Z,204.00
2018-12-14T08:05:09.950Z,216.00
2018-12-14T08:06:09.938Z,228.00
2018-12-14T08:07:09.946Z,236.00
2018-12-14T08:08:10.565Z,232.00
2018-12-14T08:09:09.901Z,232.00
2018-12-14T08:10:09.912Z,228.00
2018-12-14T08:11:09.885Z,232.00
2018-12-14T08:12:09.891Z,236.00
2018-12-14T08:13:09.856Z,244.00
2018-12-14T08:14:09.846Z,252.00
2018-12-14T08:15:11.486Z,260.00
2018-12-14T08:16:09.855Z,260.00
2018-12-14T08:17:09.817Z,264.00
2018-12-14T08:18:09.805Z,264.00
2018-12-14T08:19:09.797Z,268.00
2018-12-14T08:20:09.797Z,276.00
2018-12-14T08:21:09.770Z,284.00
2018-12-14T08:22:09.768Z,288.00
2018-12-14T08:23:09.747Z,288.00
2018-12-14T08:24:09.736Z,276.00
2018-12-14T08:25:09.742Z,272.00
2018-12-14T08:26:09.717Z,280.00
2018-12-14T08:27:09.707Z,280.00
2018-12-14T08:28:09.709Z,284.00
2018-12-14T08:29:09.682Z,300.00
2018-12-14T08:30:09.688Z,316.00
2018-12-14T08:31:09.660Z,316.00
2018-12-14T08:32:09.649Z,308.00
2018-12-14T08:33:09.638Z,312.00
2018-12-14T08:34:09.634Z,312.00
2018-12-14T08:35:09.640Z,308.00
2018-12-14T08:36:09.604Z,312.00
2018-12-14T08:37:09.594Z,308.00
2018-12-14T08:38:09.585Z,308.00
2018-12-14T08:39:09.573Z,308.00
2018-12-14T08:40:09.594Z,308.00
2018-12-14T08:41:09.551Z,316.00
2018-12-14T08:42:09.539Z,320.00
2018-12-14T08:43:09.541Z,324.00
2018-12-14T08:44:09.519Z,328.00
2018-12-14T08:45:09.536Z,336.00
2018-12-14T08:46:09.502Z,340.00
2018-12-14T08:47:09.484Z,344.00
2018-12-14T08:48:09.474Z,344.00
2018-12-14T08:49:09.464Z,340.00
2018-12-14T08:50:09.468Z,336.00
2018-12-14T08:51:09.441Z,336.00
2018-12-14T08:52:09.439Z,344.00
2018-12-14T08:53:09.425Z,348.00
2018-12-14T08:54:09.407Z,348.00
2018-12-14T08:55:09.418Z,360.00
2018-12-14T08:56:09.386Z,376.00
2018-12-14T08:57:09.373Z,380.00
2018-12-14T08:58:09.370Z,380.00
2018-12-14T08:59:09.357Z,388.00
2018-12-14T09:00:09.361Z,392.00
2018-12-14T09:01:09.329Z,396.00
2018-12-14T09:02:09.319Z,400.00
2018-12-14T09:03:09.310Z,404.00
2018-12-14T09:04:09.314Z,412.00
2018-12-14T09:05:09.309Z,416.00
2018-12-14T09:06:09.277Z,416.00
2018-12-14T09:07:09.273Z,416.00
2018-12-14T09:08:09.255Z,416.00
2018-12-14T09:09:09.243Z,420.00
2018-12-14T09:10:09.258Z,420.00
2018-12-14T09:11:09.220Z,412.00
2018-12-14T09:12:09.216Z,408.00
2018-12-14T09:13:09.201Z,400.00
2018-12-14T09:14:09.188Z,404.00
2018-12-14T09:15:09.211Z,396.00
2018-12-14T09:16:09.200Z,392.00
2018-12-14T09:17:09.155Z,392.00
2018-12-14T09:18:09.143Z,392.00
2018-12-14T09:19:09.134Z,400.00
2018-12-14T09:20:09.128Z,408.00
2018-12-14T09:21:09.134Z,412.00
2018-12-14T09:22:09.109Z,412.00
2018-12-14T09:23:09.089Z,416.00
2018-12-14T09:24:09.081Z,416.00
2018-12-14T09:25:09.069Z,416.00
2018-12-14T09:26:09.092Z,416.00
2018-12-14T09:27:09.047Z,412.00
2018-12-14T09:28:09.042Z,412.00
2018-12-14T09:29:09.024Z,412.00
2018-12-14T09:30:09.014Z,420.00
2018-12-14T09:31:09.018Z,428.00
2018-12-14T09:32:08.991Z,432.00
2018-12-14T09:33:08.986Z,448.00
2018-12-14T09:34:08.991Z,464.00
2018-12-14T09:35:08.958Z,476.00
2018-12-14T09:36:08.961Z,492.00
2018-12-14T09:37:08.936Z,496.00
2018-12-14T09:38:08.931Z,496.00
2018-12-14T09:39:08.913Z,504.00
2018-12-14T09:40:08.919Z,500.00
2018-12-14T09:41:08.912Z,496.00
2018-12-14T09:42:08.886Z,500.00
2018-12-14T09:43:08.876Z,492.00
2018-12-14T09:44:08.865Z,488.00
2018-12-14T09:45:08.848Z,492.00
2018-12-14T09:46:08.869Z,496.00
2018-12-14T09:47:08.827Z,492.00
2018-12-14T09:48:08.819Z,496.00
2018-12-14T09:49:08.802Z,492.00
2018-12-14T09:50:08.793Z,500.00
2018-12-14T09:51:12.300Z,512.00
2018-12-14T09:52:08.785Z,516.00
2018-12-14T09:53:08.764Z,528.00
2018-12-14T09:54:08.749Z,524.00
2018-12-14T09:55:08.738Z,508.00
2018-12-14T09:56:08.743Z,496.00
2018-12-14T09:57:08.716Z,488.00
2018-12-14T09:58:08.722Z,484.00
2018-12-14T09:59:08.701Z,484.00
2018-12-14T10:00:08.686Z,484.00
2018-12-14T10:01:08.694Z,488.00
2018-12-14T10:02:08.667Z,492.00
2018-12-14T10:03:08.650Z,492.00
2018-12-14T10:04:08.647Z,492.00
2018-12-14T10:05:08.636Z,496.00
2018-12-14T10:06:08.632Z,508.00
2018-12-14T10:07:08.605Z,512.00
2018-12-14T10:08:08.595Z,512.00
2018-12-14T10:09:08.590Z,528.00
2018-12-14T10:10:08.602Z,540.00
2018-12-14T10:11:08.593Z,544.00
2018-12-14T10:12:08.558Z,544.00
2018-12-14T10:13:08.541Z,556.00
2018-12-14T10:14:08.528Z,560.00
2018-12-14T10:15:08.524Z,564.00
2018-12-14T10:16:08.536Z,564.00
2018-12-14T10:17:08.500Z,568.00
2018-12-14T10:18:08.484Z,564.00
2018-12-14T10:19:08.479Z,560.00
2018-12-14T10:20:08.463Z,564.00
2018-12-14T10:21:08.469Z,568.00
2018-12-14T10:22:08.451Z,572.00
2018-12-14T10:23:08.430Z,588.00
2018-12-14T10:24:08.425Z,612.00
2018-12-14T10:25:08.410Z,624.00
2018-12-14T10:26:08.438Z,640.00
2018-12-14T10:27:08.387Z,648.00
2018-12-14T10:28:08.386Z,640.00
2018-12-14T10:29:08.364Z,632.00
2018-12-14T10:30:08.359Z,624.00
2018-12-14T10:31:08.358Z,624.00
2018-12-14T10:32:08.334Z,624.00
2018-12-14T10:33:08.320Z,632.00
2018-12-14T10:34:08.329Z,636.00
2018-12-14T10:35:08.298Z,632.00
2018-12-14T10:36:08.305Z,636.00
2018-12-14T10:37:08.276Z,640.00
2018-12-14T10:38:08.265Z,648.00
2018-12-14T10:39:08.255Z,660.00
2018-12-14T10:40:08.260Z,676.00
2018-12-14T10:41:08.255Z,692.00
2018-12-14T10:42:08.222Z,712.00
2018-12-14T10:43:08.212Z,720.00
2018-12-14T10:44:08.209Z,716.00
2018-12-14T10:45:08.190Z,716.00
2018-12-14T10:46:08.216Z,716.00
2018-12-14T10:47:08.165Z,704.00
2018-12-14T10:48:08.162Z,696.00
2018-12-14T10:49:08.145Z,696.00
2018-12-14T10:50:08.142Z,700.00
2018-12-14T10:51:08.144Z,704.00
2018-12-14T10:52:08.112Z,696.00
2018-12-14T10:53:08.109Z,692.00
2018-12-14T10:54:08.099Z,704.00
2018-12-14T10:55:08.081Z,712.00
2018-12-14T10:56:08.094Z,712.00
2018-12-14T10:57:08.062Z,712.00
2018-12-14T10:58:08.047Z,708.00
2018-12-14T10:59:08.035Z,704.00
2018-12-14T11:00:08.023Z,692.00
2018-12-14T11:01:08.036Z,676.00
2018-12-14T11:02:08.001Z,664.00
2018-12-14T11:03:08.002Z,660.00
2018-12-14T11:04:07.979Z,672.00
2018-12-14T11:05:07.979Z,680.00
2018-12-14T11:06:07.974Z,688.00
2018-12-14T11:07:07.961Z,704.00
2018-12-14T11:08:07.957Z,708.00
2018-12-14T11:09:07.966Z,700.00
2018-12-14T11:10:07.920Z,688.00
2018-12-14T11:11:07.920Z,684.00
2018-12-14T11:12:07.902Z,684.00
2018-12-14T11:13:07.882Z,692.00
2018-12-14T11:14:13.787Z,700.00
2018-12-14T11:15:08.858Z,716.00
2018-12-14T11:16:07.872Z,720.00
2018-12-14T11:17:07.838Z,732.00
2018-12-14T11:18:07.847Z,732.00
2018-12-14T11:19:07.818Z,732.00
2018-12-14T11:20:07.806Z,736.00
2018-12-14T11:21:07.824Z,728.00
2018-12-14T11:22:07.786Z,720.00
2018-12-14T11:23:07.772Z,720.00
2018-12-14T11:24:07.777Z,712.00
2018-12-14T11:25:07.756Z,704.00
2018-12-14T11:26:07.764Z,692.00
2018-12-14T11:27:07.730Z,676.00
2018-12-14T11:28:07.724Z,672.00
2018-12-14T11:29:07.708Z,676.00
2018-12-14T11:30:07.713Z,684.00
2018-12-14T11:31:07.704Z,688.00
2018-12-14T11:32:07.686Z,684.00
2018-12-14T11:33:07.698Z,684.00
2018-12-14T11:34:07.662Z,680.00
2018-12-14T11:35:07.646Z,676.00
2018-12-14T11:36:07.674Z,668.00
2018-12-14T11:37:07.624Z,664.00
2018-12-14T11:38:07.617Z,664.00
2018-12-14T11:39:07.600Z,660.00
2018-12-14T11:40:07.600Z,660.00
2018-12-14T11:41:07.598Z,668.00
2018-12-14T11:42:07.580Z,664.00
2018-12-14T11:43:07.561Z,664.00
2018-12-14T11:44:07.549Z,672.00
2018-12-14T11:45:07.537Z,676.00
2018-12-14T11:46:07.541Z,684.00
2018-12-14T11:47:07.516Z,688.00
2018-12-14T11:48:07.521Z,696.00
2018-12-14T11:49:07.492Z,704.00
2018-12-14T11:50:07.486Z,716.00
2018-12-14T11:51:07.491Z,712.00
2018-12-14T11:52:07.462Z,704.00
2018-12-14T11:53:07.450Z,688.00
2018-12-14T11:54:07.462Z,684.00
2018-12-14T11:55:07.428Z,688.00
2018-12-14T11:56:07.451Z,696.00
2018-12-14T11:57:07.409Z,680.00
2018-12-14T11:58:07.396Z,664.00
2018-12-14T11:59:07.388Z,648.00
2018-12-14T12:00:07.381Z,636.00
2018-12-14T12:01:07.362Z,620.00
2018-12-14T12:02:07.373Z,604.00
2018-12-14T12:03:07.340Z,604.00
2018-12-14T12:04:07.332Z,616.00
2018-12-14T12:05:07.319Z,640.00
2018-12-14T12:06:07.321Z,664.00
2018-12-14T12:07:07.319Z,668.00
2018-12-14T12:08:07.290Z,660.00
2018-12-14T12:09:07.277Z,648.00
2018-12-14T12:10:07.264Z,644.00
2018-12-14T12:11:07.337Z,648.00
2018-12-14T12:12:07.266Z,636.00
2018-12-14T12:13:07.252Z,620.00
2018-12-14T12:14:07.230Z,604.00
2018-12-14T12:15:07.211Z,596.00
2018-12-14T12:16:07.200Z,592.00
2018-12-14T12:17:07.211Z,584.00
2018-12-14T12:18:07.180Z,576.00
2018-12-14T12:19:07.184Z,568.00
2018-12-14T12:20:07.158Z,556.00
2018-12-14T12:21:07.153Z,548.00
2018-12-14T12:22:07.154Z,536.00
2018-12-14T12:23:07.125Z,528.00
2018-12-14T12:24:07.113Z,524.00
2018-12-14T12:25:07.108Z,512.00
2018-12-14T12:26:07.099Z,508.00
2018-12-14T12:27:07.098Z,512.00
2018-12-14T12:28:07.076Z,516.00
2018-12-14T12:29:07.060Z,520.00
2018-12-14T12:30:07.050Z,528.00
2018-12-14T12:31:07.123Z,528.00
2018-12-14T12:32:07.039Z,536.00
2018-12-14T12:33:07.017Z,536.00
2018-12-14T12:34:07.003Z,532.00
2018-12-14T12:35:08.099Z,536.00
2018-12-14T12:36:06.981Z,544.00
2018-12-14T12:37:06.997Z,540.00
2018-12-14T12:38:06.960Z,540.00
2018-12-14T12:39:06.950Z,532.00
2018-12-14T12:40:06.939Z,520.00
2018-12-14T12:41:06.930Z,524.00
2018-12-14T12:42:06.933Z,524.00
2018-12-14T12:43:06.916Z,512.00
2018-12-14T12:44:06.900Z,504.00
2018-12-14T12:45:07.687Z,508.00
2018-12-14T12:46:06.880Z,504.00
2018-12-14T12:47:06.878Z,492.00
2018-12-14T12:48:06.851Z,496.00
2018-12-14T12:49:06.866Z,508.00
2018-12-14T12:50:06.835Z,512.00
2018-12-14T12:51:06.818Z,504.00
2018-12-14T12:52:06.822Z,512.00
2018-12-14T12:53:06.796Z,532.00
2018-12-14T12:54:06.784Z,536.00
2018-12-14T12:55:06.788Z,536.00